createdAt,value
2018-10-09T00:02:13.397Z,96171.03
2018-10-09T00:04:42.488Z,96179.12
2018-10-09T00:07:11.625Z,96173.61
2018-10-09T00:09:40.922Z,96172.44
2018-10-09T00:12:10.161Z,96176.75
2018-10-09T00:14:39.276Z,96175.05
2018-10-09T00:17:08.555Z,96183.14
2018-10-09T00:19:37.651Z,96183.90
2018-10-09T00:22:06.860Z,96183.34
2018-10-09T00:24:36.032Z,96184.11
2018-10-09T00:27:05.132Z,96178.86
2018-10-09T00:29:34.248Z,96183.28
2018-10-09T00:32:03.432Z,96181.91
2018-10-09T00:34:32.537Z,96183.22
2018-10-09T00:37:01.731Z,96175.23
2018-10-09T00:39:30.907Z,96180.13
2018-10-09T00:42:00.127Z,96179.03
2018-10-09T00:44:29.321Z,96175.16
2018-10-09T00:46:58.403Z,96180.33
2018-10-09T00:49:27.503Z,96181.42
2018-10-09T00:51:56.715Z,96178.68
2018-10-09T00:54:25.850Z,96186.08
2018-10-09T00:56:55.367Z,96184.23
2018-10-09T00:59:24.479Z,96178.45
2018-10-09T01:01:53.628Z,96181.69
2018-10-09T01:04:22.725Z,96180.43
2018-10-09T01:06:51.922Z,96170.84
2018-10-09T01:09:21.339Z,96173.05
2018-10-09T01:11:50.522Z,96173.11
2018-10-09T01:14:19.703Z,96172.84
2018-10-09T01:16:48.811Z,96174.48
2018-10-09T01:19:17.975Z,96182.42
2018-10-09T01:21:47.181Z,96174.96
2018-10-09T01:24:16.278Z,96172.22
2018-10-09T01:26:45.377Z,96179.92
2018-10-09T01:29:14.827Z,96184.06
2018-10-09T01:31:44.210Z,96185.81
2018-10-09T01:34:13.519Z,96183.55
2018-10-09T01:36:42.678Z,96185.44
2018-10-09T01:39:11.966Z,96182.46
2018-10-09T01:41:41.106Z,96184.38
2018-10-09T01:44:10.366Z,96181.09
2018-10-09T01:46:39.460Z,96182.16
2018-10-09T01:49:08.660Z,96185.16
2018-10-09T01:51:37.802Z,96184.06
2018-10-09T01:54:07.252Z,96182.15
2018-10-09T01:56:36.832Z,96180.23
2018-10-09T01:59:06.324Z,96184.65
2018-10-09T02:01:35.632Z,96179.72
2018-10-09T02:04:04.776Z,96184.06
2018-10-09T02:06:33.988Z,96183.01
2018-10-09T02:09:03.732Z,96182.70
2018-10-09T02:11:32.924Z,96179.96
2018-10-09T02:14:02.094Z,96183.77
2018-10-09T02:16:31.226Z,96182.94
2018-10-09T02:19:00.360Z,96172.56
2018-10-09T02:21:29.580Z,96180.20
2018-10-09T02:23:58.753Z,96177.25
2018-10-09T02:26:27.956Z,96178.35
2018-10-09T02:28:57.099Z,96175.00
2018-10-09T02:31:26.244Z,96177.39
2018-10-09T02:33:55.436Z,96169.66
2018-10-09T02:36:24.541Z,96173.42
2018-10-09T02:38:53.680Z,96166.61
2018-10-09T02:41:22.770Z,96169.72
2018-10-09T02:43:51.991Z,96162.53
2018-10-09T02:46:21.123Z,96161.64
2018-10-09T02:48:50.312Z,96161.09
2018-10-09T02:51:19.454Z,96167.56
2018-10-09T02:53:48.551Z,96169.86
2018-10-09T02:56:17.707Z,96160.07
2018-10-09T02:58:46.951Z,96162.43
2018-10-09T03:01:16.063Z,96159.02
2018-10-09T03:03:45.197Z,96156.00
2018-10-09T03:06:14.313Z,96156.00
2018-10-09T03:08:43.437Z,96154.33
2018-10-09T03:11:12.535Z,96158.39
2018-10-09T03:13:41.697Z,96154.28
2018-10-09T03:16:10.835Z,96146.62
2018-10-09T03:21:19.206Z,96150.11
2018-10-09T03:23:48.287Z,96157.50
2018-10-09T03:26:17.436Z,96144.94
2018-10-09T03:28:46.656Z,96147.68
2018-10-09T03:31:15.799Z,96153.70
2018-10-09T03:33:44.915Z,96145.69
2018-10-09T03:36:14.381Z,96152.53
2018-10-09T03:38:43.603Z,96151.13
2018-10-09T03:41:12.697Z,96159.69
2018-10-09T03:43:41.799Z,96158.05
2018-10-09T03:46:10.923Z,96161.61
2018-10-09T03:48:40.032Z,96159.58
2018-10-09T03:51:09.189Z,96156.25
2018-10-09T03:53:38.297Z,96160.31
2018-10-09T03:56:07.411Z,96164.94
2018-10-09T03:58:36.575Z,96177.00
2018-10-09T04:01:05.682Z,96174.22
2018-10-09T04:03:34.798Z,96176.92
2018-10-09T04:06:03.968Z,96182.63
2018-10-09T04:08:33.422Z,96184.39
2018-10-09T04:11:02.644Z,96180.55
2018-10-09T04:13:31.824Z,96177.47
2018-10-09T04:16:00.924Z,96181.80
2018-10-09T04:18:30.128Z,96179.66
2018-10-09T04:20:59.347Z,96184.00
2018-10-09T04:23:28.488Z,96183.26
2018-10-09T04:25:57.635Z,96184.13
2018-10-09T04:28:26.884Z,96183.61
2018-10-09T04:30:56.004Z,96184.16
2018-10-09T04:33:25.116Z,96187.72
2018-10-09T04:35:54.232Z,96184.47
2018-10-09T04:38:23.467Z,96188.06
2018-10-09T04:40:52.701Z,96186.39
2018-10-09T04:43:21.815Z,96177.38
2018-10-09T04:45:50.968Z,96175.70
2018-10-09T04:48:20.203Z,96178.95
2018-10-09T04:50:49.431Z,96180.05
2018-10-09T04:53:18.547Z,96181.10
2018-10-09T04:55:47.793Z,96182.75
2018-10-09T04:58:16.920Z,96192.38
2018-10-09T05:00:46.114Z,96191.31
2018-10-09T05:03:15.150Z,96190.77
2018-10-09T05:05:44.278Z,96183.06
2018-10-09T05:08:13.399Z,96179.53
2018-10-09T05:10:42.668Z,96184.75
2018-10-09T05:13:11.775Z,96183.64
2018-10-09T05:15:40.887Z,96189.33
2018-10-09T05:18:10.089Z,96178.12
2018-10-09T05:20:39.281Z,96175.90
2018-10-09T05:23:08.393Z,96183.80
2018-10-09T05:25:37.555Z,96179.23
2018-10-09T05:28:06.660Z,96183.53
2018-10-09T05:30:35.899Z,96191.17
2018-10-09T05:33:05.040Z,96194.97
2018-10-09T05:35:34.148Z,96195.59
2018-10-09T05:38:03.249Z,96187.64
2018-10-09T05:40:32.829Z,96188.43
2018-10-09T05:43:01.925Z,96188.19
2018-10-09T05:45:31.224Z,96185.38
2018-10-09T05:48:00.452Z,96176.69
2018-10-09T05:50:29.758Z,96178.12
2018-10-09T05:52:58.936Z,96182.55
2018-10-09T05:55:28.129Z,96183.37
2018-10-09T05:57:57.406Z,96178.17
2018-10-09T06:00:26.718Z,96181.14
2018-10-09T06:02:55.936Z,96174.75
2018-10-09T06:05:25.132Z,96178.31
2018-10-09T06:07:54.686Z,96177.03
2018-10-09T06:10:23.822Z,96176.79
2018-10-09T06:12:52.985Z,96180.00
2018-10-09T06:15:22.198Z,96184.80
2018-10-09T06:17:51.240Z,96193.62
2018-10-09T06:20:20.544Z,96193.58
2018-10-09T06:22:49.820Z,96194.32
2018-10-09T06:25:19.022Z,96190.30
2018-10-09T06:27:48.133Z,96193.54
2018-10-09T06:30:17.320Z,96187.00
2018-10-09T06:32:46.503Z,96199.48
2018-10-09T06:35:15.720Z,96201.69
2018-10-09T06:37:44.808Z,96203.09
2018-10-09T06:40:14.004Z,96204.06
2018-10-09T06:42:43.269Z,96213.70
2018-10-09T06:45:12.319Z,96222.44
2018-10-09T06:47:41.556Z,96222.02
2018-10-09T06:50:10.672Z,96224.38
2018-10-09T06:52:39.975Z,96226.44
2018-10-09T06:55:09.135Z,96227.48
2018-10-09T06:57:38.572Z,96232.07
2018-10-09T07:00:08.176Z,96238.02
2018-10-09T07:02:37.786Z,96241.37
2018-10-09T07:05:07.188Z,96253.72
2018-10-09T07:07:36.416Z,96254.81
2018-10-09T07:10:05.568Z,96257.00
2018-10-09T07:12:34.728Z,96259.44
2018-10-09T07:15:03.854Z,96258.05
2018-10-09T07:17:32.960Z,96258.83
2018-10-09T07:20:02.273Z,96256.80
2018-10-09T07:22:31.342Z,96254.50
2018-10-09T07:25:00.515Z,96252.30
2018-10-09T07:27:29.703Z,96252.58
2018-10-09T07:29:58.870Z,96261.91
2018-10-09T07:32:27.975Z,96258.67
2018-10-09T07:34:57.117Z,96261.38
2018-10-09T07:37:26.289Z,96258.13
2018-10-09T07:39:55.457Z,96267.64
2018-10-09T07:42:24.660Z,96269.55
2018-10-09T07:44:53.849Z,96274.44
2018-10-09T07:47:23.000Z,96275.92
2018-10-09T07:49:52.089Z,96277.02
2018-10-09T07:52:21.237Z,96276.37
2018-10-09T07:54:50.345Z,96283.08
2018-10-09T07:57:19.489Z,96283.85
2018-10-09T07:59:48.629Z,96279.78
2018-10-09T08:02:17.783Z,96277.62
2018-10-09T08:04:47.518Z,96287.18
2018-10-09T08:07:16.632Z,96287.42
2018-10-09T08:09:45.824Z,96286.48
2018-10-09T08:12:14.997Z,96285.55
2018-10-09T08:14:44.156Z,96283.50
2018-10-09T08:17:14.040Z,96284.54
2018-10-09T08:19:43.260Z,96280.63
2018-10-09T08:22:12.440Z,96278.92
2018-10-09T08:24:41.532Z,96283.87
2018-10-09T08:27:10.691Z,96283.87
2018-10-09T08:29:39.768Z,96283.19
2018-10-09T08:32:08.917Z,96274.56
2018-10-09T08:34:38.193Z,96271.80
2018-10-09T08:37:07.517Z,96269.13
2018-10-09T08:39:36.720Z,96273.73
2018-10-09T08:42:05.952Z,96272.01
2018-10-09T08:44:35.108Z,96272.56
2018-10-09T08:47:04.316Z,96272.01
2018-10-09T08:49:33.410Z,96276.05
2018-10-09T08:52:02.616Z,96283.28
2018-10-09T08:54:31.705Z,96284.92
2018-10-09T08:57:00.903Z,96290.92
2018-10-09T08:59:30.045Z,96285.83
2018-10-09T09:01:59.165Z,96287.62
2018-10-09T09:04:28.324Z,96287.70
2018-10-09T09:06:57.486Z,96287.34
2018-10-09T09:09:26.669Z,96289.73
2018-10-09T09:11:55.785Z,96286.69
2018-10-09T09:14:24.939Z,96284.80
2018-10-09T09:16:54.162Z,96285.25
2018-10-09T09:19:23.288Z,96288.23
2018-10-09T09:21:52.452Z,96287.05
2018-10-09T09:24:21.540Z,96288.14
2018-10-09T09:26:50.787Z,96284.38
2018-10-09T09:29:19.880Z,96288.95
2018-10-09T09:31:49.031Z,96286.66
2018-10-09T09:34:18.408Z,96292.50
2018-10-09T09:36:47.537Z,96296.14
2018-10-09T09:39:16.640Z,96298.34
2018-10-09T09:41:46.873Z,96296.37
2018-10-09T09:44:15.955Z,96297.23
2018-10-09T09:46:45.033Z,96297.41
2018-10-09T09:49:14.171Z,96297.91
2018-10-09T09:51:43.361Z,96298.00
2018-10-09T09:54:12.545Z,96298.08
2018-10-09T09:56:41.643Z,96299.45
2018-10-09T09:59:11.001Z,96294.88
2018-10-09T10:01:41.660Z,96293.19
2018-10-09T10:04:11.511Z,96295.48
2018-10-09T10:06:40.650Z,96299.27
2018-10-09T10:09:10.477Z,96300.09
2018-10-09T10:11:39.601Z,96299.41
2018-10-09T10:14:09.040Z,96304.14
2018-10-09T10:16:38.197Z,96304.25
2018-10-09T10:19:07.701Z,96300.73
2018-10-09T10:21:36.933Z,96294.27
2018-10-09T10:24:06.118Z,96295.09
2018-10-09T10:26:35.267Z,96288.70
2018-10-09T10:29:04.943Z,96292.44
2018-10-09T10:31:34.601Z,96290.17
2018-10-09T10:34:03.796Z,96291.69
2018-10-09T10:36:32.909Z,96292.34
2018-10-09T10:39:02.087Z,96293.09
2018-10-09T10:41:31.160Z,96296.83
2018-10-09T10:44:00.290Z,96291.35
2018-10-09T10:46:34.741Z,96297.13
2018-10-09T10:49:05.870Z,96291.32
2018-10-09T10:51:35.215Z,96298.08
2018-10-09T10:54:04.377Z,96290.59
2018-10-09T10:56:34.049Z,96288.73
2018-10-09T10:59:03.520Z,96288.50
2018-10-09T11:01:32.950Z,96284.73
2018-10-09T11:04:02.076Z,96284.69
2018-10-09T11:06:31.207Z,96279.70
2018-10-09T11:09:00.367Z,96279.52
2018-10-09T11:11:29.564Z,96275.05
2018-10-09T11:13:58.756Z,96271.05
2018-10-09T11:16:27.937Z,96268.30
2018-10-09T11:18:57.149Z,96268.75
2018-10-09T11:21:26.732Z,96266.79
2018-10-09T11:23:55.837Z,96269.48
2018-10-09T11:26:25.044Z,96268.72
2018-10-09T11:28:54.241Z,96271.28
2018-10-09T11:31:23.416Z,96267.16
2018-10-09T11:33:52.644Z,96264.33
2018-10-09T11:36:21.808Z,96263.41
2018-10-09T11:38:51.049Z,96264.42
2018-10-09T11:41:20.222Z,96255.41
2018-10-09T11:43:49.338Z,96250.27
2018-10-09T11:46:18.432Z,96252.67
2018-10-09T11:48:47.568Z,96252.22
2018-10-09T11:51:16.720Z,96252.00
2018-10-09T11:53:45.808Z,96242.08
2018-10-09T11:56:14.899Z,96241.11
2018-10-09T11:58:44.099Z,96240.86
2018-10-09T12:01:13.151Z,96237.47
2018-10-09T12:03:42.339Z,96237.32
2018-10-09T12:06:11.429Z,96234.28
2018-10-09T12:08:40.569Z,96238.27
2018-10-09T12:11:09.665Z,96239.38
2018-10-09T12:13:39.865Z,96237.30
2018-10-09T12:16:08.935Z,96233.33
2018-10-09T12:18:38.009Z,96233.87
2018-10-09T12:21:07.205Z,96234.63
2018-10-09T12:23:36.337Z,96230.98
2018-10-09T12:26:05.493Z,96230.70
2018-10-09T12:28:34.681Z,96231.69
2018-10-09T12:31:03.857Z,96224.78
2018-10-09T12:33:32.937Z,96227.80
2018-10-09T12:36:02.114Z,96217.55
2018-10-09T12:38:31.294Z,96213.47
2018-10-09T12:41:00.457Z,96212.02
2018-10-09T12:43:29.608Z,96211.05
2018-10-09T12:45:58.832Z,96218.60
2018-10-09T12:48:28.048Z,96216.06
2018-10-09T12:50:57.272Z,96216.55
2018-10-09T12:53:26.355Z,96211.58
2018-10-09T12:55:55.568Z,96210.09
2018-10-09T12:58:24.773Z,96207.90
2018-10-09T13:00:53.819Z,96208.91
2018-10-09T13:03:23.185Z,96210.64
2018-10-09T13:05:52.316Z,96208.60
2018-10-09T13:08:21.396Z,96217.44
2018-10-09T13:10:51.078Z,96213.95
2018-10-09T13:13:20.380Z,96224.34
2018-10-09T13:15:49.565Z,96214.00
2018-10-09T13:18:18.678Z,96209.69
2018-10-09T13:20:47.880Z,96208.27
2018-10-09T13:23:16.956Z,96211.59
2018-10-09T13:25:46.104Z,96209.39
2018-10-09T13:28:15.212Z,96198.88
2018-10-09T13:30:44.445Z,96203.61
2018-10-09T13:33:13.597Z,96203.63
2018-10-09T13:35:42.812Z,96210.17
2018-10-09T13:38:12.078Z,96206.39
2018-10-09T13:40:41.149Z,96206.52
2018-10-09T13:43:10.250Z,96198.77
2018-10-09T13:45:39.444Z,96192.06
2018-10-09T13:48:08.522Z,96197.55
2018-10-09T13:50:37.612Z,96197.69
2018-10-09T13:53:06.876Z,96202.30
2018-10-09T13:55:35.968Z,96194.81
2018-10-09T13:58:05.154Z,96196.93
2018-10-09T14:00:34.331Z,96199.03
2018-10-09T14:03:03.394Z,96196.68
2018-10-09T14:05:32.644Z,96195.69
2018-10-09T14:08:01.818Z,96195.08
2018-10-09T14:10:30.960Z,96185.54
2018-10-09T14:13:00.057Z,96182.62
2018-10-09T14:15:29.198Z,96183.11
2018-10-09T14:17:58.348Z,96189.09
2018-10-09T14:20:27.452Z,96184.93
2018-10-09T14:22:56.576Z,96187.80
2018-10-09T14:25:25.684Z,96181.20
2018-10-09T14:27:54.835Z,96185.61
2018-10-09T14:30:24.151Z,96181.73
2018-10-09T14:32:53.252Z,96178.14
2018-10-09T14:35:22.349Z,96185.22
2018-10-09T14:37:51.549Z,96189.16
2018-10-09T14:40:20.693Z,96169.88
2018-10-09T14:42:49.925Z,96173.73
2018-10-09T14:45:19.101Z,96165.64
2018-10-09T14:47:48.195Z,96163.84
2018-10-09T14:50:17.539Z,96167.19
2018-10-09T14:52:46.637Z,96169.19
2018-10-09T14:55:15.880Z,96166.09
2018-10-09T14:57:44.991Z,96170.41
2018-10-09T15:00:14.137Z,96165.53
2018-10-09T15:02:43.269Z,96163.09
2018-10-09T15:05:13.530Z,96164.44
2018-10-09T15:07:42.649Z,96167.66
2018-10-09T15:10:11.799Z,96162.81
2018-10-09T15:12:40.902Z,96161.98
2018-10-09T15:15:10.063Z,96160.41
2018-10-09T15:17:39.282Z,96155.50
2018-10-09T15:20:10.343Z,96159.81
2018-10-09T15:22:39.475Z,96162.80
2018-10-09T15:25:09.149Z,96159.37
2018-10-09T15:27:38.373Z,96161.38
2018-10-09T15:30:07.537Z,96163.52
2018-10-09T15:32:36.713Z,96164.19
2018-10-09T15:35:05.830Z,96156.73
2018-10-09T15:37:34.944Z,96157.21
2018-10-09T15:40:04.034Z,96163.49
2018-10-09T15:42:33.244Z,96162.51
2018-10-09T15:45:02.460Z,96162.92
2018-10-09T15:47:31.642Z,96164.65
2018-10-09T15:50:00.833Z,96159.05
2018-10-09T15:52:29.984Z,96159.77
2018-10-09T15:54:59.055Z,96154.34
2018-10-09T15:57:28.207Z,96158.91
2018-10-09T15:59:57.385Z,96164.17
2018-10-09T16:02:26.540Z,96156.29
2018-10-09T16:04:55.643Z,96157.70
2018-10-09T16:07:24.797Z,96156.10
2018-10-09T16:09:54.085Z,96163.12
2018-10-09T16:12:23.714Z,96153.66
2018-10-09T16:14:52.877Z,96157.05
2018-10-09T16:17:21.982Z,96153.94
2018-10-09T16:19:51.197Z,96157.89
2018-10-09T16:22:20.389Z,96156.44
2018-10-09T16:24:49.486Z,96154.20
2018-10-09T16:27:18.568Z,96158.52
2018-10-09T16:29:47.743Z,96156.33
2018-10-09T16:32:16.886Z,96153.34
2018-10-09T16:34:46.070Z,96149.68
2018-10-09T16:37:15.247Z,96151.07
2018-10-09T16:39:44.317Z,96141.19
2018-10-09T16:42:13.635Z,96137.91
2018-10-09T16:44:43.139Z,96137.16
2018-10-09T16:47:12.422Z,96131.39
2018-10-09T16:49:41.630Z,96133.26
2018-10-09T16:52:11.214Z,96134.80
2018-10-09T16:54:40.311Z,96141.02
2018-10-09T16:57:09.946Z,96135.15
2018-10-09T16:59:39.162Z,96138.18
2018-10-09T17:02:08.251Z,96134.59
2018-10-09T17:04:37.451Z,96132.98
2018-10-09T17:07:06.936Z,96136.61
2018-10-09T17:09:36.050Z,96135.79
2018-10-09T17:12:05.228Z,96140.53
2018-10-09T17:14:34.335Z,96148.07
2018-10-09T17:17:03.439Z,96157.58
2018-10-09T17:19:32.619Z,96160.67
2018-10-09T17:22:01.701Z,96156.80
2018-10-09T17:24:30.796Z,96164.09
2018-10-09T17:26:59.932Z,96153.58
2018-10-09T17:29:29.005Z,96151.87
2018-10-09T17:31:58.093Z,96162.84
2018-10-09T17:34:27.196Z,96159.16
2018-10-09T17:36:56.305Z,96167.16
2018-10-09T17:39:25.519Z,96161.52
2018-10-09T17:41:54.696Z,96160.82
2018-10-09T17:44:23.884Z,96156.87
2018-10-09T17:46:53.090Z,96160.10
2018-10-09T17:49:22.196Z,96161.52
2018-10-09T17:51:51.308Z,96165.26
2018-10-09T17:54:20.403Z,96156.91
2018-10-09T17:56:49.504Z,96158.59
2018-10-09T17:59:18.665Z,96152.98
2018-10-09T18:01:47.868Z,96156.06
2018-10-09T18:04:16.966Z,96156.60
2018-10-09T18:06:46.152Z,96156.81
2018-10-09T18:09:15.356Z,96152.52
2018-10-09T18:11:44.484Z,96162.55
2018-10-09T18:14:13.684Z,96168.27
2018-10-09T18:16:42.776Z,96167.07
2018-10-09T18:19:11.884Z,96178.37
2018-10-09T18:21:40.988Z,96174.70
2018-10-09T18:24:10.144Z,96177.45
2018-10-09T18:26:39.729Z,96182.03
2018-10-09T18:29:09.443Z,96184.86
2018-10-09T18:31:39.122Z,96186.31
2018-10-09T18:34:08.389Z,96178.96
2018-10-09T18:36:37.611Z,96177.59
2018-10-09T18:39:11.585Z,96173.52
2018-10-09T18:41:40.968Z,96177.99
2018-10-09T18:44:10.132Z,96170.09
2018-10-09T18:46:39.245Z,96171.92
2018-10-09T18:49:08.416Z,96163.16
2018-10-09T18:51:37.608Z,96167.48
2018-10-09T18:54:07.016Z,96164.70
2018-10-09T18:56:36.108Z,96164.66
2018-10-09T18:59:05.209Z,96167.83
2018-10-09T19:01:34.436Z,96168.15
2018-10-09T19:04:03.554Z,96169.55
2018-10-09T19:06:32.651Z,96163.25
2018-10-09T19:09:01.801Z,96170.22
2018-10-09T19:11:30.944Z,96169.09
2018-10-09T19:14:00.146Z,96180.05
2018-10-09T19:16:29.303Z,96176.33
2018-10-09T19:18:58.436Z,96181.81
2018-10-09T19:21:27.541Z,96177.11
2018-10-09T19:23:56.790Z,96176.84
2018-10-09T19:26:25.823Z,96172.80
2018-10-09T19:28:54.942Z,96178.58
2018-10-09T19:31:24.059Z,96180.13
2018-10-09T19:33:53.199Z,96179.27
2018-10-09T19:36:22.317Z,96177.45
2018-10-09T19:38:51.485Z,96179.16
2018-10-09T19:41:20.597Z,96182.69
2018-10-09T19:43:49.685Z,96185.36
2018-10-09T19:46:18.794Z,96185.55
2018-10-09T19:48:47.878Z,96192.52
2018-10-09T19:51:17.019Z,96193.18
2018-10-09T19:53:46.115Z,96190.98
2018-10-09T19:56:15.200Z,96191.81
2018-10-09T19:58:44.461Z,96194.52
2018-10-09T20:01:13.642Z,96201.11
2018-10-09T20:03:42.670Z,96203.30
2018-10-09T20:06:11.793Z,96204.23
2018-10-09T20:08:40.869Z,96202.63
2018-10-09T20:11:09.978Z,96202.27
2018-10-09T20:13:39.081Z,96205.37
2018-10-09T20:16:08.662Z,96203.74
2018-10-09T20:18:37.780Z,96209.75
2018-10-09T20:21:07.915Z,96210.92
2018-10-09T20:23:37.260Z,96212.80
2018-10-09T20:26:06.401Z,96214.69
2018-10-09T20:28:35.477Z,96214.78
2018-10-09T20:31:04.572Z,96219.36
2018-10-09T20:33:33.737Z,96222.67
2018-10-09T20:36:02.832Z,96225.17
2018-10-09T20:38:31.934Z,96226.04
2018-10-09T20:41:01.047Z,96228.43
2018-10-09T20:43:30.116Z,96227.89
2018-10-09T20:45:59.238Z,96227.66
2018-10-09T20:48:28.340Z,96226.74
2018-10-09T20:50:57.452Z,96227.09
2018-10-09T20:53:26.588Z,96229.38
2018-10-09T20:55:55.690Z,96222.30
2018-10-09T20:58:24.788Z,96226.33
2018-10-09T21:00:53.877Z,96221.16
2018-10-09T21:03:22.971Z,96220.91
2018-10-09T21:05:52.188Z,96217.30
2018-10-09T21:08:21.188Z,96214.89
2018-10-09T21:10:50.273Z,96217.09
2018-10-09T21:13:19.458Z,96214.41
2018-10-09T21:15:48.561Z,96208.41
2018-10-09T21:18:17.657Z,96199.41
2018-10-09T21:20:46.758Z,96195.36
2018-10-09T21:23:15.997Z,96199.92
2018-10-09T21:25:45.103Z,96195.44
2018-10-09T21:28:14.177Z,96195.76
2018-10-09T21:30:43.273Z,96195.98
2018-10-09T21:33:12.372Z,96201.28
2018-10-09T21:35:41.514Z,96200.19
2018-10-09T21:38:10.687Z,96204.02
2018-10-09T21:40:39.780Z,96199.95
2018-10-09T21:43:08.852Z,96193.95
2018-10-09T21:45:37.939Z,96195.59
2018-10-09T21:48:07.019Z,96194.52
2018-10-09T21:50:36.118Z,96197.22
2018-10-09T21:53:05.201Z,96195.86
2018-10-09T21:55:34.309Z,96194.52
2018-10-09T21:58:03.391Z,96193.73
2018-10-09T22:00:36.664Z,96193.21
2018-10-09T22:03:05.754Z,96185.55
2018-10-09T22:05:34.855Z,96186.40
2018-10-09T22:08:04.020Z,96185.03
2018-10-09T22:10:33.166Z,96184.77
2018-10-09T22:13:02.271Z,96176.83
2018-10-09T22:15:31.380Z,96181.50
2018-10-09T22:18:00.512Z,96189.70
2018-10-09T22:20:29.651Z,96188.90
2018-10-09T22:22:58.789Z,96193.52
2018-10-09T22:25:27.865Z,96188.84
2018-10-09T22:27:57.053Z,96191.89
2018-10-09T22:30:26.093Z,96192.19
2018-10-09T22:32:55.447Z,96188.09
2018-10-09T22:35:24.569Z,96189.98
2018-10-09T22:37:53.650Z,96193.55
2018-10-09T22:40:22.729Z,96191.34
2018-10-09T22:42:51.785Z,96197.01
2018-10-09T22:45:20.853Z,96195.05
2018-10-09T22:47:49.921Z,96194.16
2018-10-09T22:50:19.073Z,96192.52
2018-10-09T22:52:48.141Z,96185.14
2018-10-09T22:55:17.189Z,96182.87
2018-10-09T22:57:46.261Z,96177.89
2018-10-09T23:00:15.328Z,96183.94
2018-10-09T23:02:44.437Z,96178.12
2018-10-09T23:05:13.528Z,96175.01
2018-10-09T23:07:42.697Z,96177.66
2018-10-09T23:10:11.740Z,96171.89
2018-10-09T23:12:40.809Z,96172.77
2018-10-09T23:15:09.989Z,96162.64
2018-10-09T23:17:39.160Z,96162.61
2018-10-09T23:20:08.348Z,96159.13
2018-10-09T23:22:37.472Z,96155.03
2018-10-09T23:25:06.790Z,96161.05
2018-10-09T23:27:35.973Z,96151.28
2018-10-09T23:30:05.657Z,96158.05
2018-10-09T23:32:34.761Z,96150.61
2018-10-09T23:35:03.879Z,96139.41
2018-10-09T23:37:32.961Z,96143.53
2018-10-09T23:40:02.200Z,96148.13
2018-10-09T23:42:31.318Z,96144.20
2018-10-09T23:45:00.515Z,96144.67
2018-10-09T23:47:29.624Z,96142.64
2018-10-09T23:49:58.741Z,96140.96
2018-10-09T23:52:27.861Z,96148.05
2018-10-09T23:54:56.989Z,96142.58
2018-10-09T23:57:26.154Z,96142.06
2018-10-09T23:59:55.234Z,96140.91
